Time;durP1;ratioP1;P1;durP2;ratioP2;P2;SDS_P1;SDS_P2;PMS_P1;PMS_P2;Temp;Humidity;BMP_temperature;BMP_pressure;BME280_temperature;BME280_humidity;BME280_pressure;Samples;Min_cycle;Max_cycle;Signal;HPM_P1;HPM_P2
2024/04/14 00:02:21;;;;;;;4.28;2.10;;;16.20;54.60;;;12.56;81.55;96225.41;5354610;26;20352;-55
2024/04/14 00:04:52;;;;;;;5.90;2.15;;;16.20;54.40;;;12.60;80.67;96226.53;5365564;26;20036;-55
2024/04/14 00:07:21;;;;;;;3.35;2.17;;;16.30;54.30;;;12.57;80.44;96227.03;5321891;26;20001;-54
2024/04/14 00:09:47;;;;;;;4.88;2.08;;;16.30;54.10;;;12.55;81.19;96229.97;5324603;26;20019;-53
2024/04/14 00:12:13;;;;;;;3.28;1.95;;;16.30;54.00;;;12.46;82.01;96229.66;5333771;26;20000;-48
2024/04/14 00:14:39;;;;;;;5.15;2.17;;;16.30;53.80;;;12.40;81.12;96221.88;5325127;26;20004;-50
2024/04/14 00:17:05;;;;;;;9.27;2.78;;;16.30;53.70;;;12.41;81.08;96226.16;5303502;26;20008;-54
2024/04/14 00:19:31;;;;;;;3.40;2.50;;;16.30;53.70;;;12.36;81.46;96220.78;5321782;26;20081;-57
2024/04/14 00:21:57;;;;;;;4.93;2.17;;;16.30;53.70;;;12.29;81.64;96220.22;5319622;26;20004;-55
2024/04/14 00:24:22;;;;;;;5.75;3.28;;;16.20;53.60;;;12.22;82.30;96213.25;5330365;26;20155;-53
2024/04/14 00:26:49;;;;;;;7.43;1.90;;;16.20;53.60;;;12.14;82.62;96218.28;5331624;26;20040;-57
2024/04/14 00:29:15;;;;;;;4.18;1.73;;;16.20;53.50;;;12.07;82.50;96215.03;5320635;26;20002;-52
2024/04/14 00:31:41;;;;;;;4.72;1.88;;;16.10;53.50;;;12.05;83.33;96209.94;5324244;26;20421;-57
2024/04/14 00:34:10;;;;;;;4.50;2.40;;;16.10;53.50;;;11.97;83.64;96211.25;5317897;26;20008;-54
2024/04/14 00:36:36;;;;;;;4.43;2.00;;;16.10;53.50;;;11.81;84.60;96212.16;5324391;26;20004;-52
2024/04/14 00:39:03;;;;;;;3.35;1.65;;;16.00;53.50;;;11.71;85.01;96207.56;5329316;26;20001;-51
2024/04/14 00:41:28;;;;;;;3.22;1.85;;;15.90;53.60;;;11.62;85.41;96200.28;5327859;26;20004;-52
2024/04/14 00:43:54;;;;;;;3.95;1.88;;;15.80;53.60;;;11.51;85.87;96188.75;5335058;26;20259;-54
2024/04/14 00:46:20;;;;;;;2.83;1.77;;;15.70;53.60;;;11.44;86.40;96194.28;5313740;26;20476;-54
2024/04/14 00:48:47;;;;;;;6.82;2.03;;;15.70;53.80;;;11.30;87.13;96185.09;5328325;26;20012;-52
2024/04/14 00:51:14;;;;;;;3.88;1.80;;;15.60;53.80;;;11.21;87.56;96184.75;5325682;26;20023;-52
2024/04/14 00:53:40;;;;;;;4.50;2.10;;;15.50;53.90;;;11.15;87.80;96193.75;5303351;26;20627;-57
2024/04/14 00:56:08;;;;;;;4.40;1.60;;;15.40;54.00;;;11.13;87.42;96190.56;5318162;26;20385;-56
2024/04/14 00:58:34;;;;;;;3.47;1.73;;;15.40;54.20;;;11.18;88.42;96185.25;5328647;26;20139;-53
2024/04/14 01:01:00;;;;;;;5.13;1.75;;;15.30;54.20;;;11.21;87.13;96194.63;5313166;26;20004;-51
2024/04/14 01:03:27;;;;;;;2.70;1.70;;;15.30;54.30;;;11.14;87.79;96183.34;5323598;26;20085;-50
2024/04/14 01:05:53;;;;;;;4.60;1.77;;;15.30;54.40;;;11.08;88.31;96188.63;5325996;26;20022;-56
2024/04/14 01:08:20;;;;;;;5.20;1.80;;;15.20;54.40;;;11.06;88.84;96187.28;5290313;26;20008;-55
2024/04/14 01:10:46;;;;;;;3.80;2.38;;;15.20;54.50;;;10.97;89.69;96183.44;5321745;26;20367;-55
2024/04/14 01:13:12;;;;;;;2.70;1.90;;;15.20;54.60;;;11.04;88.58;96194.75;5327583;26;20342;-53
2024/04/14 01:15:38;;;;;;;3.25;1.80;;;15.10;54.60;;;11.05;88.54;96189.13;5321128;26;20016;-51
2024/04/14 01:18:07;;;;;;;4.10;1.85;;;15.10;54.60;;;11.01;88.77;96192.56;5326047;26;20536;-55
2024/04/14 01:20:34;;;;;;;6.13;2.25;;;15.10;54.70;;;10.99;88.03;96187.47;5316476;26;20020;-56
2024/04/14 01:23:00;;;;;;;3.42;1.85;;;15.10;54.70;;;11.04;87.34;96192.88;5326844;26;20008;-55
2024/04/14 01:25:26;;;;;;;4.90;1.98;;;15.10;54.70;;;11.03;87.35;96183.28;5307881;26;20133;-51
2024/04/14 01:27:52;;;;;;;3.50;2.08;;;15.10;54.70;;;11.03;87.22;96190.44;5328010;26;20052;-51
2024/04/14 01:30:18;;;;;;;3.33;1.67;;;15.10;54.70;;;10.98;87.05;96180.53;5321282;26;20015;-52
2024/04/14 01:32:44;;;;;;;2.78;1.70;;;15.10;54.70;;;10.96;87.57;96195.19;5319007;26;20360;-52
2024/04/14 01:35:10;;;;;;;5.50;1.95;;;15.00;54.60;;;10.93;87.68;96198.34;5320160;26;20017;-53
2024/04/14 01:37:36;;;;;;;4.78;1.42;;;15.00;54.70;;;10.91;86.66;96200.47;5292921;26;20009;-53
2024/04/14 01:40:02;;;;;;;5.50;2.17;;;15.00;54.60;;;10.98;86.42;96201.88;5296354;26;20013;-52
2024/04/14 01:42:30;;;;;;;6.00;1.70;;;15.00;54.60;;;11.03;86.79;96201.09;5321694;26;20000;-52
2024/04/14 01:44:56;;;;;;;3.47;1.70;;;15.00;54.80;;;11.01;86.74;96201.38;5327009;26;20016;-53
2024/04/14 01:47:22;;;;;;;5.28;2.42;;;15.00;54.70;;;10.95;86.88;96202.38;5322590;26;20012;-47
2024/04/14 01:49:48;;;;;;;2.10;1.50;;;15.00;54.70;;;10.92;87.30;96202.06;5329705;26;20757;-47
2024/04/14 01:52:14;;;;;;;3.35;1.60;;;15.00;54.70;;;10.86;86.23;96202.00;5331084;26;20005;-47
2024/04/14 01:54:41;;;;;;;6.00;1.92;;;14.90;54.60;;;10.82;87.86;96186.78;5326552;26;20000;-50
2024/04/14 01:57:07;;;;;;;2.00;1.63;;;14.90;54.60;;;10.71;88.79;96190.38;5320637;26;20011;-50
2024/04/14 01:59:35;;;;;;;6.90;1.92;;;14.90;54.70;;;10.66;88.81;96191.16;5325976;26;20024;-52
2024/04/14 02:02:00;;;;;;;2.95;1.73;;;14.90;54.70;;;10.56;89.86;96183.84;5319490;26;20000;-46
2024/04/14 02:04:26;;;;;;;3.75;1.83;;;14.90;54.70;;;10.53;88.90;96187.00;5324197;26;20016;-48
2024/04/14 02:06:52;;;;;;;2.58;1.92;;;14.80;54.70;;;10.39;91.25;96188.44;5319656;26;20027;-47
2024/04/14 02:09:18;;;;;;;3.38;1.60;;;14.70;54.70;;;10.35;90.45;96185.47;5319715;26;20013;-47
2024/04/14 02:11:43;;;;;;;3.13;1.52;;;14.70;54.80;;;10.37;90.37;96193.19;5320763;26;20009;-49
2024/04/14 02:14:09;;;;;;;2.97;1.75;;;14.60;54.80;;;10.23;91.26;96187.41;5338784;26;20242;-55
2024/04/14 02:16:35;;;;;;;4.25;1.58;;;14.60;54.90;;;10.18;91.80;96192.66;5329465;26;20355;-49
2024/04/14 02:19:01;;;;;;;4.95;1.88;;;14.50;55.00;;;10.11;92.19;96195.50;5322614;26;20275;-48
2024/04/14 02:21:27;;;;;;;2.50;1.42;;;14.40;55.00;;;10.10;91.72;96193.09;5313918;26;20024;-46
2024/04/14 02:23:54;;;;;;;3.47;1.50;;;14.40;55.10;;;10.11;91.37;96197.38;5325426;26;20439;-46
2024/04/14 02:26:20;;;;;;;1.48;1.30;;;14.40;55.20;;;10.13;91.95;96195.28;5330472;26;20010;-45
2024/04/14 02:28:46;;;;;;;3.63;1.60;;;14.30;55.20;;;10.06;92.61;96192.81;5325219;26;20385;-45
2024/04/14 02:31:12;;;;;;;3.70;1.45;;;14.30;55.30;;;10.06;92.21;96194.63;5321867;26;20032;-46
2024/04/14 02:33:40;;;;;;;2.35;1.65;;;14.20;55.30;;;10.00;92.89;96191.13;5326730;26;20096;-48
2024/04/14 02:36:07;;;;;;;3.85;1.60;;;14.20;55.40;;;9.95;92.70;96191.03;5322237;26;20017;-50
2024/04/14 02:38:32;;;;;;;3.42;1.50;;;14.20;55.50;;;9.88;93.61;96193.06;5326189;26;20465;-54
2024/04/14 02:41:04;;;;;;;6.40;1.58;;;14.10;55.50;;;9.80;93.96;96204.13;5324200;26;20008;-47
2024/04/14 02:43:35;;;;;;;5.10;1.48;;;14.10;55.70;;;9.80;93.53;96201.47;5333181;26;20004;-47
2024/04/14 02:46:01;;;;;;;1.98;1.48;;;14.10;55.60;;;9.64;94.86;96205.75;5322476;26;20362;-46
2024/04/14 02:48:28;;;;;;;3.00;1.55;;;14.00;55.60;;;9.60;95.06;96199.31;5334274;26;20012;-46
2024/04/14 02:50:54;;;;;;;3.35;1.70;;;13.90;55.70;;;9.55;95.59;96199.22;5322952;26;20502;-46
2024/04/14 02:53:20;;;;;;;2.42;1.42;;;13.90;55.80;;;9.41;96.31;96191.59;5329791;26;20019;-55
2024/04/14 02:55:45;;;;;;;1.80;1.42;;;13.80;55.90;;;9.31;96.85;96191.44;5317420;26;20016;-46
2024/04/14 02:58:11;;;;;;;3.60;1.70;;;13.80;55.90;;;9.28;97.47;96189.25;5318393;26;20451;-47
2024/04/14 03:00:37;;;;;;;3.95;1.77;;;13.70;55.90;;;9.23;97.69;96191.81;5319288;26;20115;-49
2024/04/14 03:03:03;;;;;;;4.97;1.60;;;13.70;56.00;;;9.20;98.00;96193.09;5323629;26;20001;-46
2024/04/14 03:05:29;;;;;;;2.75;1.63;;;13.60;56.10;;;9.15;98.18;96186.88;5295328;26;20355;-46
2024/04/14 03:07:56;;;;;;;3.80;1.50;;;13.60;56.20;;;9.09;98.85;96182.53;5316691;26;20004;-46
2024/04/14 03:10:22;;;;;;;4.65;1.90;;;13.50;56.40;;;8.99;99.49;96183.16;5327562;26;20008;-46
2024/04/14 03:12:50;;;;;;;3.20;1.50;;;13.40;56.40;;;8.95;99.99;96188.16;5320074;26;20347;-46
2024/04/14 03:15:16;;;;;;;3.85;1.67;;;13.40;56.50;;;8.86;100.00;96183.47;5328821;26;20134;-46
2024/04/14 03:17:41;;;;;;;3.70;1.75;;;13.30;56.60;;;8.80;100.00;96187.88;5325126;26;20004;-46
2024/04/14 03:20:09;;;;;;;2.58;1.40;;;13.30;56.70;;;8.79;100.00;96173.00;5314973;26;20007;-49
2024/04/14 03:22:35;;;;;;;5.38;1.70;;;13.20;56.80;;;8.73;100.00;96172.09;5324473;26;20414;-46
2024/04/14 03:25:01;;;;;;;4.20;1.80;;;13.20;56.90;;;8.72;100.00;96170.50;5326775;26;20040;-54
2024/04/14 03:27:27;;;;;;;3.28;1.70;;;13.10;57.00;;;8.74;100.00;96172.91;5319443;26;20129;-47
2024/04/14 03:29:53;;;;;;;4.60;1.50;;;13.10;57.10;;;8.65;100.00;96172.50;5344132;26;20468;-46
2024/04/14 03:32:20;;;;;;;4.57;1.65;;;13.10;57.10;;;8.54;100.00;96170.69;5331714;26;20033;-46
2024/04/14 03:34:46;;;;;;;2.75;1.60;;;13.00;57.10;;;8.53;100.00;96161.09;5327904;26;20004;-50
2024/04/14 03:37:12;;;;;;;2.83;1.83;;;13.00;57.20;;;8.51;100.00;96164.00;5321984;26;20073;-46
2024/04/14 03:39:38;;;;;;;3.42;2.00;;;12.90;57.70;;;8.40;100.00;96164.03;5330774;26;20015;-46
2024/04/14 03:42:04;;;;;;;3.22;1.70;;;12.90;57.20;;;8.37;100.00;96169.78;5330003;26;20449;-46
2024/04/14 03:44:31;;;;;;;7.22;1.88;;;12.80;57.30;;;8.39;100.00;96167.72;5327087;26;20384;-46
2024/04/14 03:46:57;;;;;;;3.72;1.75;;;12.80;57.50;;;8.42;100.00;96159.28;5327151;26;21785;-46
2024/04/14 03:49:23;;;;;;;4.30;2.10;;;12.80;57.50;;;8.34;100.00;96158.59;5324929;26;20012;-48
2024/04/14 03:51:49;;;;;;;4.55;1.85;;;12.70;57.60;;;8.29;100.00;96155.84;5334298;26;20413;-46
2024/04/14 03:54:15;;;;;;;2.58;1.50;;;12.70;57.70;;;8.32;100.00;96157.22;5321069;26;20012;-46
2024/04/14 03:56:41;;;;;;;6.63;2.00;;;12.70;57.80;;;8.40;100.00;96154.22;5326991;26;20001;-52
2024/04/14 03:59:07;;;;;;;4.03;1.52;;;12.70;57.90;;;8.33;100.00;96162.28;5324891;26;20009;-53
2024/04/14 04:01:33;;;;;;;6.10;1.90;;;12.70;57.90;;;8.31;100.00;96155.63;5330186;26;20028;-55
2024/04/14 04:03:59;;;;;;;4.60;1.90;;;12.60;57.90;;;8.25;100.00;96157.34;5331592;26;20015;-45
2024/04/14 04:06:25;;;;;;;3.78;1.83;;;12.60;57.90;;;8.19;100.00;96152.19;5329242;26;20014;-48
2024/04/14 04:08:51;;;;;;;4.97;1.70;;;12.60;58.00;;;8.10;100.00;96157.06;5325496;26;20001;-49
2024/04/14 04:11:17;;;;;;;2.78;1.40;;;12.60;58.00;;;8.07;100.00;96150.34;5326085;26;20005;-51
2024/04/14 04:13:43;;;;;;;7.68;1.80;;;12.50;58.10;;;8.05;100.00;96155.13;5330089;26;20001;-50
2024/04/14 04:16:09;;;;;;;2.47;1.70;;;12.50;58.10;;;8.05;100.00;96147.16;5340491;26;20000;-51
2024/04/14 04:18:35;;;;;;;3.42;1.80;;;12.50;58.20;;;8.03;100.00;96153.72;5324815;26;20016;-52
2024/04/14 04:21:05;;;;;;;3.35;1.75;;;12.40;58.10;;;8.05;100.00;96159.59;5333415;26;20041;-49
2024/04/14 04:23:32;;;;;;;5.28;1.70;;;12.40;58.30;;;7.99;100.00;96156.03;5327058;26;19997;-50
2024/04/14 04:26:01;;;;;;;5.30;1.88;;;12.40;58.30;;;7.96;100.00;96159.16;5322343;26;20019;-48
2024/04/14 04:28:28;;;;;;;3.53;1.75;;;12.40;58.40;;;7.92;100.00;96162.50;5321740;26;20007;-47
2024/04/14 04:30:56;;;;;;;3.72;2.15;;;12.30;58.40;;;7.92;100.00;96165.97;5325814;26;20008;-49
2024/04/14 04:33:25;;;;;;;4.22;1.83;;;12.30;58.40;;;7.93;100.00;96167.59;5312548;26;20041;-49
2024/04/14 04:35:58;;;;;;;4.40;1.88;;;12.30;58.50;;;7.93;100.00;96170.25;5327996;26;20090;-48
2024/04/14 04:38:26;;;;;;;6.50;1.80;;;12.30;58.70;;;7.89;100.00;96167.22;5326999;26;20024;-51
2024/04/14 04:40:53;;;;;;;4.47;1.50;;;12.30;58.60;;;7.87;100.00;96169.31;5323818;26;20008;-51
2024/04/14 04:43:22;;;;;;;5.13;1.48;;;12.30;58.60;;;7.88;100.00;96165.63;5337198;26;20004;-49
2024/04/14 04:45:48;;;;;;;6.07;1.95;;;12.30;58.60;;;7.88;100.00;96175.44;5319796;26;20004;-54
2024/04/14 04:48:14;;;;;;;2.90;1.75;;;12.20;58.60;;;7.88;100.00;96170.94;5321382;26;20467;-52
2024/04/14 04:50:45;;;;;;;6.45;2.50;;;12.20;58.70;;;7.87;100.00;96171.19;5330466;26;20013;-53
2024/04/14 04:53:11;;;;;;;4.07;2.10;;;12.30;58.80;;;7.83;100.00;96173.50;5319874;26;20363;-53
2024/04/14 04:55:36;;;;;;;3.85;2.38;;;12.30;58.70;;;7.83;100.00;96170.84;5324970;26;20004;-54
2024/04/14 04:58:03;;;;;;;3.03;1.73;;;12.30;58.70;;;7.84;100.00;96172.44;5323546;26;20040;-54
2024/04/14 05:00:28;;;;;;;2.47;1.75;;;12.30;58.80;;;7.82;100.00;96181.66;5330304;26;20486;-48
2024/04/14 05:02:54;;;;;;;5.50;1.92;;;12.30;58.80;;;7.91;100.00;96177.63;5323413;26;20012;-52
2024/04/14 05:05:20;;;;;;;2.83;1.80;;;12.30;58.80;;;8.02;100.00;96182.13;5321741;26;20078;-50
2024/04/14 05:07:46;;;;;;;5.07;1.52;;;12.30;58.80;;;8.18;100.00;96175.28;5323235;26;20009;-49
2024/04/14 05:10:12;;;;;;;3.30;1.60;;;12.40;58.90;;;8.32;100.00;96179.25;5325818;26;20001;-51
2024/04/14 05:12:38;;;;;;;2.97;1.42;;;12.50;58.90;;;8.45;100.00;96180.84;5320907;26;20016;-48
2024/04/14 05:15:06;;;;;;;3.65;1.42;;;12.60;58.90;;;8.44;100.00;96178.47;5324076;26;20008;-50
2024/04/14 05:17:32;;;;;;;4.30;1.60;;;12.70;58.90;;;8.63;100.00;96181.72;5332434;26;20016;-48
2024/04/14 05:19:58;;;;;;;5.00;1.50;;;12.80;58.80;;;8.74;100.00;96186.16;5319903;26;20347;-49
2024/04/14 05:22:24;;;;;;;2.75;1.65;;;12.90;58.80;;;8.96;99.61;96184.47;5323738;26;20055;-48
2024/04/14 05:24:50;;;;;;;2.40;1.30;;;13.20;58.90;;;9.21;98.03;96185.91;5319015;26;20012;-51
2024/04/14 05:27:16;;;;;;;2.80;1.55;;;13.30;58.80;;;9.47;97.97;96185.28;5324063;26;20005;-50
2024/04/14 05:29:46;;;;;;;2.10;1.30;;;13.60;58.70;;;9.72;96.63;96194.72;5328250;26;20699;-49
2024/04/14 05:32:18;;;;;;;6.15;1.70;;;13.90;58.60;;;9.88;95.09;96188.56;5334479;26;20012;-53
2024/04/14 05:34:44;;;;;;;;;;;14.20;58.40;;;10.09;94.63;96192.31;5329139;26;20021;-49
2024/04/14 05:37:10;;;;;;;3.70;1.92;;;14.40;57.90;;;10.34;94.84;96196.34;5330872;26;20376;-48
2024/04/14 05:39:37;;;;;;;5.47;1.45;;;14.70;57.70;;;10.52;93.07;96195.25;5326650;26;20012;-51
2024/04/14 05:42:03;;;;;;;1.40;1.30;;;15.00;57.40;;;10.72;92.31;96192.00;5334438;26;20241;-48
2024/04/14 05:44:33;;;;;;;1.50;1.30;;;15.30;57.20;;;10.89;91.39;96188.19;5334252;26;20005;-48
2024/04/14 05:46:59;;;;;;;4.55;2.10;;;15.50;56.90;;;11.01;90.00;96189.91;5322810;26;20372;-51
2024/04/14 05:49:26;;;;;;;3.70;1.58;;;15.80;56.60;;;11.23;86.93;96190.63;5330478;26;20155;-48
2024/04/14 05:51:52;;;;;;;1.85;1.30;;;16.00;56.10;;;11.55;85.90;96184.50;5314489;26;20009;-52
2024/04/14 05:54:17;;;;;;;3.15;1.30;;;16.30;55.70;;;11.85;86.27;96191.16;5323264;26;20351;-48
2024/04/14 05:56:43;;;;;;;2.95;1.30;;;16.70;55.50;;;12.11;84.02;96184.06;5327529;26;20011;-51
2024/04/14 05:59:09;;;;;;;3.10;1.60;;;17.00;55.10;;;12.45;81.07;96192.50;5327105;26;20013;-49
2024/04/14 06:01:35;;;;;;;2.20;1.50;;;17.40;54.60;;;12.71;79.35;96186.19;5331482;26;20144;-50
2024/04/14 06:04:01;;;;;;;6.28;3.45;;;17.80;54.10;;;12.98;81.70;96190.53;5294393;26;20475;-48
2024/04/14 06:06:27;;;;;;;3.15;1.30;;;18.10;53.80;;;13.39;78.97;96201.31;5320391;26;20601;-49
2024/04/14 06:08:54;;;;;;;3.63;1.73;;;18.50;53.40;;;13.69;76.59;96195.13;5329030;26;20012;-48
2024/04/14 06:11:20;;;;;;;4.80;1.50;;;18.80;52.90;;;14.07;70.99;96192.94;5325210;26;20347;-49
2024/04/14 06:13:47;;;;;;;2.60;1.30;;;19.20;52.30;;;14.40;68.71;96190.72;5320520;26;20009;-51
2024/04/14 06:16:14;;;;;;;2.90;1.55;;;19.50;51.20;;;14.70;72.20;96197.88;5320874;26;20009;-48
2024/04/14 06:18:40;;;;;;;1.88;1.50;;;19.90;50.90;;;15.08;65.06;96195.50;5294825;26;20016;-51
2024/04/14 06:21:06;;;;;;;2.53;1.40;;;20.30;50.20;;;15.45;64.15;96195.00;5314571;26;20091;-53
2024/04/14 06:23:32;;;;;;;3.50;1.85;;;20.70;49.60;;;15.79;61.23;96189.59;5322555;26;20350;-50
2024/04/14 06:25:59;;;;;;;2.75;1.67;;;21.10;48.90;;;16.26;60.36;96196.13;5329228;26;20359;-50
2024/04/14 06:28:25;;;;;;;4.55;1.70;;;21.60;48.10;;;16.68;59.46;96197.28;5327985;26;20008;-48
2024/04/14 06:30:51;;;;;;;3.45;1.60;;;22.00;48.00;;;17.10;57.61;96203.72;5333583;26;20000;-49
2024/04/14 06:33:19;;;;;;;1.70;1.35;;;22.40;47.30;;;17.43;55.18;96195.72;5345398;26;20019;-49
2024/04/14 06:35:44;;;;;;;3.83;1.63;;;22.80;45.80;;;17.76;54.14;96191.13;5321588;26;20367;-51
2024/04/14 06:38:11;;;;;;;4.18;1.48;;;23.20;45.00;;;18.14;51.47;96194.53;5310153;26;20004;-51
2024/04/14 06:40:38;;;;;;;2.35;1.50;;;23.60;44.20;;;18.38;49.35;96196.25;5303496;26;20479;-50
2024/04/14 06:43:05;;;;;;;5.85;1.52;;;24.00;43.20;;;18.67;47.41;96194.03;5331182;26;20459;-52
2024/04/14 06:45:31;;;;;;;1.80;1.30;;;24.40;42.10;;;18.97;46.87;96188.34;5334904;26;20367;-49
2024/04/14 06:47:56;;;;;;;5.72;2.03;;;24.70;41.30;;;19.28;46.07;96196.56;5325045;26;20016;-51
2024/04/14 06:50:22;;;;;;;3.17;1.85;;;25.00;40.60;;;19.38;45.54;96188.22;5338190;26;20009;-51
2024/04/14 06:52:48;;;;;;;1.98;1.48;;;25.30;39.90;;;19.56;45.39;96200.78;5337041;26;20075;-54
2024/04/14 06:55:15;;;;;;;4.28;1.70;;;25.60;39.30;;;19.64;45.39;96200.03;5332683;26;20085;-52
2024/04/14 06:57:42;;;;;;;2.65;1.55;;;25.80;38.60;;;19.91;44.80;96195.63;5334680;26;20008;-54
2024/04/14 07:00:10;;;;;;;4.47;1.88;;;26.10;38.00;;;20.23;43.10;96191.81;5302753;26;20078;-49
2024/04/14 07:02:36;;;;;;;4.80;1.98;;;26.40;37.40;;;20.58;42.32;96189.25;5325823;26;20000;-53
2024/04/14 07:05:03;;;;;;;3.78;1.70;;;26.70;36.90;;;20.80;42.06;96191.06;5331412;26;20005;-50
2024/04/14 07:07:29;;;;;;;2.15;1.77;;;26.90;36.20;;;21.11;41.82;96192.88;5327855;26;20015;-52
2024/04/14 07:09:55;;;;;;;2.80;1.73;;;27.20;35.70;;;21.43;41.51;96188.94;5299498;26;20000;-53
2024/04/14 07:12:21;;;;;;;3.50;1.90;;;27.60;35.40;;;21.59;40.39;96189.25;5328097;26;20355;-54
2024/04/14 07:14:47;;;;;;;2.10;1.52;;;27.90;34.80;;;21.91;40.39;96183.31;5311242;26;20471;-49
2024/04/14 07:17:12;;;;;;;3.15;1.60;;;28.20;34.40;;;22.12;40.24;96191.53;5315232;26;19997;-51
2024/04/14 07:19:40;;;;;;;2.95;1.80;;;28.50;33.90;;;22.34;39.74;96184.31;5327915;26;20348;-52
2024/04/14 07:22:06;;;;;;;3.33;1.90;;;28.80;34.00;;;22.59;39.46;96185.31;5330941;26;20448;-49
2024/04/14 07:24:33;;;;;;;4.32;2.00;;;29.10;33.00;;;22.83;38.90;96190.16;5324153;26;20015;-50
2024/04/14 07:26:59;;;;;;;2.90;1.90;;;29.40;32.60;;;22.97;38.88;96184.50;5324298;26;20012;-54
2024/04/14 07:29:25;;;;;;;2.75;1.70;;;29.60;32.20;;;23.21;39.06;96192.00;5331409;26;20107;-49
2024/04/14 07:31:50;;;;;;;3.85;1.80;;;29.90;31.90;;;23.44;39.42;96190.56;5329436;26;20683;-49
2024/04/14 07:34:16;;;;;;;4.63;1.70;;;30.10;31.60;;;23.88;38.44;96193.72;5330449;26;20001;-49
2024/04/14 07:36:43;;;;;;;3.63;2.15;;;30.40;31.40;;;24.02;37.99;96194.19;5333138;26;20459;-50
2024/04/14 07:39:09;;;;;;;4.30;2.08;;;30.60;31.20;;;24.21;38.25;96185.50;5334103;26;20279;-52
2024/04/14 07:41:35;;;;;;;3.25;1.80;;;30.80;30.80;;;24.39;37.57;96177.94;5328072;26;20005;-55
2024/04/14 07:44:01;;;;;;;3.10;2.08;;;31.00;30.40;;;24.62;37.77;96175.59;5332018;26;20015;-50
2024/04/14 07:46:27;;;;;;;2.92;1.98;;;31.20;30.20;;;24.80;37.91;96178.88;5290513;26;21032;-51
2024/04/14 07:48:53;;;;;;;4.55;2.10;;;31.20;30.00;;;25.01;36.16;96181.47;5300038;26;20012;-52
2024/04/14 07:51:19;;;;;;;4.05;2.00;;;31.40;29.90;;;24.88;36.40;96177.97;5327792;26;20024;-55
2024/04/14 07:53:47;;;;;;;3.60;2.08;;;31.30;29.40;;;24.88;35.99;96180.72;5325914;26;20044;-52
2024/04/14 07:56:12;;;;;;;4.82;2.30;;;31.30;29.30;;;24.84;36.92;96181.72;5323595;26;20016;-51
2024/04/14 07:58:38;;;;;;;3.88;2.10;;;31.20;29.30;;;24.77;36.67;96174.13;5324038;26;20424;-51
2024/04/14 08:01:04;;;;;;;4.05;1.92;;;31.20;29.20;;;24.80;37.25;96173.44;5319395;26;20016;-50
2024/04/14 08:03:30;;;;;;;3.75;2.10;;;31.20;29.10;;;24.98;37.08;96171.28;5322837;26;20001;-52
2024/04/14 08:05:57;;;;;;;3.17;2.15;;;31.20;29.20;;;25.00;37.09;96168.97;5324262;26;20045;-49
2024/04/14 08:08:22;;;;;;;4.53;2.40;;;31.20;29.20;;;25.06;36.76;96173.06;5326846;26;19996;-49
2024/04/14 08:10:48;;;;;;;4.50;2.50;;;31.30;29.00;;;25.02;37.41;96177.63;5333322;26;20028;-51
2024/04/14 08:13:14;;;;;;;5.07;2.28;;;31.40;29.10;;;25.20;37.26;96175.47;5327175;26;20023;-48
2024/04/14 08:15:41;;;;;;;2.63;2.03;;;31.40;29.20;;;25.43;36.41;96174.94;5321594;26;20028;-54
2024/04/14 08:18:06;;;;;;;5.30;2.40;;;31.60;29.10;;;25.68;36.51;96176.44;5320552;26;20392;-49
2024/04/14 08:20:32;;;;;;;3.20;2.45;;;31.70;29.00;;;25.99;36.52;96174.97;5316759;26;20381;-49
2024/04/14 08:22:58;;;;;;;3.45;2.42;;;31.80;29.00;;;26.04;35.44;96177.41;5325638;26;20023;-50
2024/04/14 08:25:24;;;;;;;4.32;2.83;;;32.10;28.80;;;25.92;34.88;96178.28;5293929;26;20083;-51
2024/04/14 08:27:50;;;;;;;3.05;2.60;;;32.10;28.50;;;26.11;35.35;96174.88;5333052;26;20078;-50
2024/04/14 08:30:17;;;;;;;5.03;2.40;;;32.20;28.40;;;26.16;35.28;96177.34;5331269;26;20392;-53
2024/04/14 08:32:44;;;;;;;6.13;2.55;;;32.30;28.30;;;26.30;34.99;96176.94;5363427;21;20019;-60
2024/04/14 08:35:10;;;;;;;4.47;2.53;;;32.40;28.30;;;26.13;34.01;96174.53;5369972;26;20026;-61
2024/04/14 08:37:35;;;;;;;3.45;2.60;;;32.60;27.90;;;26.13;34.85;96175.31;5370419;26;20356;-58
2024/04/14 08:40:02;;;;;;;3.92;2.30;;;32.60;27.70;;;26.44;34.85;96176.47;5371267;26;20034;-58
2024/04/14 08:42:31;;;;;;;3.45;2.50;;;32.70;27.60;;;26.69;34.53;96179.84;5344555;26;20548;-58
2024/04/14 08:45:00;;;;;;;3.60;2.38;;;32.80;27.50;;;26.98;33.52;96175.81;5334747;26;20012;-58
2024/04/14 08:47:28;;;;;;;5.25;2.70;;;32.90;27.40;;;26.69;33.61;96180.63;5333813;26;20008;-56
2024/04/14 08:49:57;;;;;;;3.45;2.20;;;33.00;27.20;;;27.17;33.71;96178.66;5313558;26;20516;-58
2024/04/14 08:52:28;;;;;;;3.55;2.53;;;33.10;27.30;;;27.30;32.92;96181.25;5324323;26;20040;-58
2024/04/14 08:54:54;;;;;;;4.60;2.65;;;33.30;27.20;;;26.99;33.70;96170.03;5316649;26;20008;-58
2024/04/14 08:57:20;;;;;;;4.30;2.72;;;33.40;27.10;;;26.80;33.67;96167.25;5327623;26;20041;-58
2024/04/14 08:59:50;;;;;;;5.20;2.70;;;33.50;26.80;;;27.00;34.04;96166.13;5353204;26;20471;-57
2024/04/14 09:02:18;;;;;;;6.05;2.60;;;33.50;26.80;;;26.97;33.46;96166.06;5330175;26;20090;-58
2024/04/14 09:04:46;;;;;;;4.93;2.22;;;33.60;26.80;;;27.20;33.28;96160.72;5351239;26;20012;-58
2024/04/14 09:07:12;;;;;;;4.75;2.80;;;33.60;26.70;;;27.84;33.05;96169.47;5331379;26;20474;-58
2024/04/14 09:09:37;;;;;;;5.18;2.58;;;33.70;26.80;;;28.36;32.08;96168.03;5336746;26;20016;-57
2024/04/14 09:12:04;;;;;;;3.75;2.50;;;34.00;26.90;;;28.43;30.99;96167.44;5335045;26;20023;-58
2024/04/14 09:14:30;;;;;;;5.50;3.13;;;34.20;26.60;;;28.55;30.90;96168.03;5335635;26;20008;-58
2024/04/14 09:16:55;;;;;;;4.95;2.60;;;34.50;26.30;;;28.64;30.50;96159.53;5333149;26;20547;-56
2024/04/14 09:19:21;;;;;;;5.05;2.70;;;34.70;26.10;;;28.53;31.24;96159.38;5319379;26;20386;-56
2024/04/14 09:21:47;;;;;;;3.47;2.88;;;34.80;25.90;;;28.72;31.15;96155.75;5333400;26;20008;-58
2024/04/14 09:24:14;;;;;;;5.53;2.60;;;35.00;26.00;;;29.01;31.01;96161.69;5333838;26;20059;-56
2024/04/14 09:26:40;;;;;;;3.40;2.75;;;35.10;25.80;;;28.85;29.99;96152.81;5307951;26;20363;-59
2024/04/14 09:29:08;;;;;;;3.90;2.95;;;35.30;25.50;;;29.25;30.00;96155.75;5315707;26;20008;-59
2024/04/14 09:31:35;;;;;;;4.53;2.60;;;35.50;25.30;;;29.29;30.69;96153.84;5322030;26;20024;-59
2024/04/14 09:34:06;;;;;;;3.17;2.88;;;35.60;25.20;;;29.74;29.39;96146.59;5318104;26;20023;-60
2024/04/14 09:36:34;;;;;;;3.17;2.80;;;35.80;25.10;;;30.05;28.96;96146.50;5317495;26;20008;-60
2024/04/14 09:39:03;;;;;;;2.85;2.30;;;36.00;25.00;;;30.27;28.75;96142.03;5318755;26;20019;-60
2024/04/14 09:41:30;;;;;;;4.05;2.40;;;36.30;24.90;;;30.08;28.68;96146.53;5318796;26;20008;-60
2024/04/14 09:43:59;;;;;;;6.45;2.42;;;36.40;24.60;;;30.12;28.93;96150.13;5326265;26;20023;-60
2024/04/14 09:46:27;;;;;;;3.42;2.75;;;36.50;24.50;;;29.46;28.83;96144.28;5320341;26;20023;-59
2024/04/14 09:48:54;;;;;;;3.90;2.65;;;36.60;24.10;;;29.02;29.78;96141.34;5316582;26;20005;-60
2024/04/14 09:51:20;;;;;;;3.35;2.28;;;36.60;23.90;;;29.36;29.33;96139.41;5343680;26;20382;-60
2024/04/14 09:53:49;;;;;;;4.10;2.53;;;36.40;23.90;;;28.75;30.31;96132.31;5341486;26;20013;-59
2024/04/14 09:56:16;;;;;;;3.75;2.80;;;36.30;23.80;;;28.99;29.44;96136.56;5316789;26;20144;-59
2024/04/14 09:58:42;;;;;;;2.85;2.55;;;36.20;23.80;;;29.41;29.66;96130.88;5313365;26;20371;-60
2024/04/14 10:01:19;;;;;;;5.07;2.72;;;36.20;23.90;;;29.48;29.20;96124.69;5316960;26;20004;-58
2024/04/14 10:03:51;;;;;;;4.80;2.50;;;36.20;23.90;;;29.17;29.25;96118.41;5314103;26;20013;-60
2024/04/14 10:06:20;;;;;;;6.28;2.42;;;36.30;23.80;;;29.35;29.11;96121.38;5331665;26;20008;-56
2024/04/14 10:08:46;;;;;;;3.67;2.72;;;36.20;23.80;;;29.25;29.07;96109.13;5320454;26;20020;-58
2024/04/14 10:11:12;;;;;;;4.03;2.45;;;36.30;23.60;;;29.40;29.37;96107.34;5314778;26;20013;-57
2024/04/14 10:13:54;;;;;;;4.03;2.50;;;36.30;23.60;;;29.43;29.10;96105.81;5313322;26;20023;-60
2024/04/14 10:16:24;;;;;;;3.88;2.90;;;36.40;23.70;;;29.14;29.50;96104.66;5310304;26;20032;-59
2024/04/14 10:18:50;;;;;;;4.78;2.50;;;36.40;23.50;;;29.32;28.88;96102.16;5318714;26;20011;-59